createdAt,value
2018-09-22T00:01:11.422Z,42.84
2018-09-22T00:03:42.043Z,43.06
2018-09-22T00:06:12.397Z,42.78
2018-09-22T00:08:42.617Z,43.03
2018-09-22T00:11:13.413Z,42.83
2018-09-22T00:13:43.646Z,43.00
2018-09-22T00:16:13.989Z,43.02
2018-09-22T00:18:45.141Z,43.15
2018-09-22T00:21:15.284Z,42.86
2018-09-22T00:23:45.380Z,42.48
2018-09-22T00:26:15.655Z,42.76
2018-09-22T00:28:46.127Z,42.79
2018-09-22T00:31:16.593Z,42.95
2018-09-22T00:33:47.829Z,42.55
2018-09-22T00:36:17.983Z,43.00
2018-09-22T00:38:48.235Z,43.18
2018-09-22T00:41:18.489Z,43.06
2018-09-22T00:43:49.103Z,43.33
2018-09-22T00:46:19.536Z,43.24
2018-09-22T00:48:49.591Z,43.00
2018-09-22T00:51:19.983Z,43.15
2018-09-22T00:53:50.234Z,43.24
2018-09-22T00:56:20.601Z,42.91
2018-09-22T00:58:50.901Z,43.20
2018-09-22T01:01:21.423Z,43.21
2018-09-22T01:03:51.915Z,43.18
2018-09-22T01:06:22.282Z,43.04
2018-09-22T01:08:52.937Z,43.30
2018-09-22T01:11:23.279Z,43.43
2018-09-22T01:13:53.519Z,43.30
2018-09-22T01:16:23.733Z,43.15
2018-09-22T01:18:54.157Z,43.58
2018-09-22T01:21:24.303Z,43.48
2018-09-22T01:23:54.723Z,43.39
2018-09-22T01:26:25.190Z,43.31
2018-09-22T01:28:55.752Z,43.41
2018-09-22T01:31:26.009Z,43.07
2018-09-22T01:33:56.687Z,43.44
2018-09-22T01:37:02.481Z,43.31
2018-09-22T01:39:38.104Z,43.14
2018-09-22T01:42:08.551Z,43.08
2018-09-22T01:44:38.554Z,43.12
2018-09-22T01:47:08.695Z,43.21
2018-09-22T01:49:38.989Z,43.24
2018-09-22T01:52:09.179Z,43.43
2018-09-22T01:54:39.676Z,43.05
2018-09-22T01:57:10.092Z,43.51
2018-09-22T01:59:40.420Z,43.11
2018-09-22T02:02:10.868Z,43.41
2018-09-22T02:04:41.111Z,43.33
2018-09-22T02:07:11.297Z,43.00
2018-09-22T02:09:41.740Z,43.23
2018-09-22T02:12:12.042Z,43.21
2018-09-22T02:14:42.456Z,43.27
2018-09-22T02:17:12.700Z,43.01
2018-09-22T02:19:43.228Z,43.24
2018-09-22T02:22:13.436Z,43.12
2018-09-22T02:24:43.582Z,43.16
2018-09-22T02:27:13.610Z,43.20
2018-09-22T02:29:43.673Z,43.16
2018-09-22T02:32:13.748Z,43.10
2018-09-22T02:34:43.874Z,43.01
2018-09-22T02:37:13.884Z,43.11
2018-09-22T02:39:43.978Z,43.20
2018-09-22T02:42:14.032Z,43.23
2018-09-22T02:44:43.965Z,43.33
2018-09-22T02:47:14.069Z,43.16
2018-09-22T02:49:44.156Z,43.28
2018-09-22T02:52:14.337Z,43.21
2018-09-22T02:54:44.526Z,43.07
2018-09-22T02:57:16.122Z,43.21
2018-09-22T02:59:46.292Z,43.10
2018-09-22T03:02:16.673Z,43.11
2018-09-22T03:04:47.002Z,42.99
2018-09-22T03:07:17.092Z,43.18
2018-09-22T03:09:47.456Z,43.05
2018-09-22T03:12:17.554Z,43.07
2018-09-22T03:14:47.724Z,43.15
2018-09-22T03:17:17.874Z,43.02
2018-09-22T03:19:48.194Z,43.13
2018-09-22T03:22:18.297Z,42.92
2018-09-22T03:24:48.719Z,43.05
2018-09-22T03:27:18.883Z,43.11
2018-09-22T03:29:49.009Z,42.86
2018-09-22T03:32:19.349Z,42.85
2018-09-22T03:34:49.637Z,43.01
2018-09-22T03:37:19.901Z,43.17
2018-09-22T03:39:50.016Z,42.83
2018-09-22T03:42:20.088Z,43.00
2018-09-22T03:44:50.292Z,43.03
2018-09-22T03:47:20.597Z,42.70
2018-09-22T03:49:50.668Z,42.82
2018-09-22T03:52:20.891Z,42.96
2018-09-22T03:54:50.981Z,42.93
2018-09-22T03:57:21.615Z,42.76
2018-09-22T03:59:51.809Z,42.74
2018-09-22T04:02:21.857Z,42.62
2018-09-22T04:04:52.043Z,42.84
2018-09-22T04:07:22.278Z,42.69
2018-09-22T04:09:52.507Z,42.89
2018-09-22T04:12:22.540Z,42.68
2018-09-22T04:14:53.019Z,43.04
2018-09-22T04:17:23.494Z,42.36
2018-09-22T04:19:54.048Z,42.72
2018-09-22T04:22:24.501Z,42.37
2018-09-22T04:24:54.838Z,42.71
2018-09-22T04:27:24.982Z,42.72
2018-09-22T04:29:55.043Z,42.25
2018-09-22T04:32:25.395Z,42.22
2018-09-22T04:34:55.508Z,42.21
2018-09-22T04:37:25.919Z,42.02
2018-09-22T04:39:56.379Z,41.86
2018-09-22T04:42:30.223Z,41.91
2018-09-22T04:45:00.605Z,41.79
2018-09-22T04:47:30.881Z,41.71
2018-09-22T04:50:01.037Z,41.69
2018-09-22T04:52:31.670Z,41.75
2018-09-22T04:55:02.305Z,41.77
2018-09-22T04:57:32.485Z,41.69
2018-09-22T05:00:02.626Z,41.62
2018-09-22T05:02:32.899Z,41.44
2018-09-22T05:05:03.001Z,41.66
2018-09-22T05:07:33.632Z,41.33
2018-09-22T05:10:03.890Z,41.44
2018-09-22T05:12:34.040Z,41.65
2018-09-22T05:15:05.013Z,41.64
2018-09-22T05:17:35.195Z,41.55
2018-09-22T05:20:05.445Z,41.93
2018-09-22T05:22:35.588Z,41.61
2018-09-22T05:25:05.939Z,41.67
2018-09-22T05:27:36.381Z,41.72
2018-09-22T05:30:06.620Z,41.56
2018-09-22T05:32:40.659Z,41.72
2018-09-22T05:35:15.619Z,41.76
2018-09-22T05:37:45.565Z,41.85
2018-09-22T05:40:15.595Z,41.59
2018-09-22T05:42:45.950Z,41.80
2018-09-22T05:45:15.984Z,41.31
2018-09-22T05:47:45.977Z,41.70
2018-09-22T05:50:15.935Z,41.42
2018-09-22T05:52:46.558Z,41.45
2018-09-22T05:55:16.830Z,41.21
2018-09-22T05:57:46.851Z,41.36
2018-09-22T06:00:16.954Z,41.64
2018-09-22T06:02:47.120Z,40.30
2018-09-22T06:05:17.237Z,40.76
2018-09-22T06:07:48.777Z,40.65
2018-09-22T06:10:20.544Z,40.71
2018-09-22T06:12:52.261Z,40.85
2018-09-22T06:15:22.309Z,41.11
2018-09-22T06:17:54.158Z,41.02
2018-09-22T06:20:24.690Z,40.16
2018-09-22T06:22:54.702Z,40.71
2018-09-22T06:25:24.747Z,41.35
2018-09-22T06:27:55.022Z,41.24
2018-09-22T06:30:24.996Z,40.64
2018-09-22T06:32:55.000Z,40.21
2018-09-22T06:35:25.218Z,40.74
2018-09-22T06:37:56.538Z,40.77
2018-09-22T06:40:26.870Z,40.85
2018-09-22T06:42:57.059Z,40.62
2018-09-22T06:45:27.199Z,41.15
2018-09-22T06:47:57.583Z,41.58
2018-09-22T06:50:28.630Z,41.25
2018-09-22T06:52:58.796Z,42.19
2018-09-22T06:55:28.777Z,40.35
2018-09-22T06:57:58.793Z,40.87
2018-09-22T07:00:28.880Z,40.88
2018-09-22T07:02:58.994Z,40.65
2018-09-22T07:05:29.190Z,40.44
2018-09-22T07:07:59.261Z,40.63
2018-09-22T07:10:29.480Z,40.20
2018-09-22T07:12:59.600Z,40.07
2018-09-22T07:15:29.632Z,40.63
2018-09-22T07:17:59.633Z,40.35
2018-09-22T07:20:29.665Z,40.32
2018-09-22T07:23:05.105Z,40.67
2018-09-22T07:25:35.099Z,40.31
2018-09-22T07:28:05.170Z,40.26
2018-09-22T07:30:35.236Z,40.10
2018-09-22T07:33:05.334Z,40.01
2018-09-22T07:35:35.508Z,40.57
2018-09-22T07:38:05.948Z,39.37
2018-09-22T07:40:36.000Z,39.88
2018-09-22T07:43:06.083Z,39.88
2018-09-22T07:45:36.292Z,39.22
2018-09-22T07:48:06.326Z,39.11
2018-09-22T07:50:36.498Z,39.07
2018-09-22T07:53:06.438Z,38.58
2018-09-22T07:55:36.585Z,38.93
2018-09-22T07:58:06.944Z,38.86
2018-09-22T08:00:37.026Z,38.80
2018-09-22T08:03:07.265Z,38.93
2018-09-22T08:05:37.280Z,38.39
2018-09-22T08:08:07.408Z,38.41
2018-09-22T08:10:37.438Z,38.77
2018-09-22T08:13:08.052Z,38.38
2018-09-22T08:15:38.065Z,38.50
2018-09-22T08:18:08.394Z,38.16
2018-09-22T08:20:38.491Z,37.87
2018-09-22T08:23:08.549Z,37.38
2018-09-22T08:25:38.650Z,37.56
2018-09-22T08:28:08.887Z,38.52
2018-09-22T08:30:39.210Z,37.98
2018-09-22T08:33:09.669Z,38.01
2018-09-22T08:35:39.871Z,38.54
2018-09-22T08:38:10.100Z,37.81
2018-09-22T08:40:40.242Z,38.52
2018-09-22T08:43:11.790Z,38.09
2018-09-22T08:45:42.275Z,37.64
2018-09-22T08:48:13.354Z,37.75
2018-09-22T08:50:44.344Z,38.01
2018-09-22T08:53:15.356Z,38.46
2018-09-22T08:55:45.447Z,37.52
2018-09-22T08:58:16.855Z,38.30
2018-09-22T09:00:48.078Z,37.83
2018-09-22T09:03:18.621Z,37.87
2018-09-22T09:05:48.784Z,37.89
2018-09-22T09:08:19.835Z,38.71
2018-09-22T09:10:50.576Z,37.75
2018-09-22T09:13:21.490Z,37.83
2018-09-22T09:15:52.184Z,38.69
2018-09-22T09:18:23.797Z,38.74
2018-09-22T09:20:54.614Z,39.34
2018-09-22T09:23:25.847Z,40.09
2018-09-22T09:25:56.139Z,39.46
2018-09-22T09:28:26.209Z,40.77
2018-09-22T09:30:56.821Z,40.96
2018-09-22T09:33:28.524Z,41.62
2018-09-22T09:36:00.118Z,41.88
2018-09-22T09:38:32.131Z,41.61
2018-09-22T09:41:02.598Z,42.34
2018-09-22T09:43:33.293Z,41.76
2018-09-22T09:46:04.008Z,41.79
2018-09-22T09:48:34.669Z,41.27
2018-09-22T09:51:05.862Z,42.18
2018-09-22T09:53:36.198Z,41.70
2018-09-22T09:56:07.195Z,42.18
2018-09-22T09:58:38.273Z,42.15
2018-09-22T10:01:08.527Z,41.90
2018-09-22T10:03:39.050Z,42.34
2018-09-22T10:06:10.453Z,42.67
2018-09-22T10:08:41.239Z,41.42
2018-09-22T10:11:11.290Z,42.25
2018-09-22T10:13:42.794Z,41.34
2018-09-22T10:16:13.977Z,41.92
2018-09-22T10:18:44.205Z,41.34
2018-09-22T10:21:15.221Z,40.88
2018-09-22T10:23:47.288Z,40.82
2018-09-22T10:26:18.616Z,40.57
2018-09-22T10:28:49.765Z,40.56
2018-09-22T10:31:22.296Z,40.71
2018-09-22T10:33:54.288Z,40.06
2018-09-22T10:36:26.392Z,40.49
2018-09-22T10:38:56.874Z,40.63
2018-09-22T10:41:27.436Z,40.45
2018-09-22T10:43:58.988Z,39.80
2018-09-22T10:46:30.246Z,39.70
2018-09-22T10:49:01.359Z,40.47
2018-09-22T10:51:32.912Z,40.04
2018-09-22T10:54:03.654Z,40.19
2018-09-22T10:56:35.340Z,39.98
2018-09-22T10:59:06.841Z,40.29
2018-09-22T11:01:37.162Z,40.48
2018-09-22T11:04:09.911Z,40.88
2018-09-22T11:06:41.235Z,40.28
2018-09-22T11:09:11.698Z,40.51
2018-09-22T11:11:42.279Z,40.36
2018-09-22T11:14:15.433Z,40.08
2018-09-22T11:16:46.191Z,40.86
2018-09-22T11:19:16.643Z,40.40
2018-09-22T11:21:47.901Z,40.29
2018-09-22T11:24:19.346Z,40.35
2018-09-22T11:26:49.869Z,40.19
2018-09-22T11:29:20.863Z,39.47
2018-09-22T11:31:51.172Z,39.84
2018-09-22T11:34:21.352Z,39.63
2018-09-22T11:36:52.286Z,39.74
2018-09-22T11:39:23.338Z,39.74
2018-09-22T11:41:54.304Z,39.23
2018-09-22T11:44:26.182Z,39.15
2018-09-22T11:46:57.201Z,39.23
2018-09-22T11:49:32.721Z,38.99
2018-09-22T11:52:04.913Z,38.96
2018-09-22T11:54:35.456Z,39.08
2018-09-22T11:57:06.184Z,38.83
2018-09-22T11:59:38.514Z,38.88
2018-09-22T12:04:39.696Z,37.93
2018-09-22T12:07:11.104Z,38.14
2018-09-22T12:09:43.068Z,38.32
2018-09-22T12:12:13.551Z,37.89
2018-09-22T12:14:44.695Z,37.37
2018-09-22T12:17:20.016Z,37.27
2018-09-22T12:19:51.576Z,37.12
2018-09-22T12:22:27.917Z,37.12
2018-09-22T12:24:59.198Z,37.08
2018-09-22T12:27:30.417Z,37.78
2018-09-22T12:30:01.480Z,37.00
2018-09-22T12:32:32.282Z,37.42
2018-09-22T12:35:04.346Z,37.18
2018-09-22T12:37:35.187Z,37.36
2018-09-22T12:40:06.321Z,37.33
2018-09-22T12:42:37.138Z,37.26
2018-09-22T12:45:07.418Z,37.24
2018-09-22T12:47:38.451Z,36.99
2018-09-22T12:50:08.760Z,37.31
2018-09-22T12:52:39.181Z,37.25
2018-09-22T12:55:09.317Z,37.37
2018-09-22T12:57:40.153Z,36.17
2018-09-22T13:00:10.905Z,36.97
2018-09-22T13:02:41.197Z,37.11
2018-09-22T13:05:12.457Z,37.17
2018-09-22T13:07:44.016Z,37.04
2018-09-22T13:10:15.447Z,36.78
2018-09-22T13:12:46.921Z,37.29
2018-09-22T13:15:17.883Z,36.09
2018-09-22T13:17:48.324Z,36.18
2018-09-22T13:20:20.246Z,36.02
2018-09-22T13:22:51.569Z,36.22
2018-09-22T13:25:22.689Z,36.00
2018-09-22T13:27:54.626Z,36.35
2018-09-22T13:30:25.209Z,36.40
2018-09-22T13:32:56.408Z,36.56
2018-09-22T13:35:28.667Z,36.31
2018-09-22T13:38:00.475Z,36.75
2018-09-22T13:40:32.607Z,36.78
2018-09-22T13:43:04.017Z,36.78
2018-09-22T13:45:34.841Z,36.70
2018-09-22T13:48:06.884Z,36.90
2018-09-22T13:50:37.168Z,36.29
2018-09-22T13:53:09.081Z,35.50
2018-09-22T13:55:39.092Z,35.19
2018-09-22T13:58:09.477Z,35.32
2018-09-22T14:00:41.105Z,35.39
2018-09-22T14:03:12.244Z,36.09
2018-09-22T14:05:42.975Z,35.90
2018-09-22T14:08:13.285Z,36.20
2018-09-22T14:10:43.605Z,36.10
2018-09-22T14:13:13.939Z,35.91
2018-09-22T14:15:45.025Z,35.52
2018-09-22T14:18:18.499Z,35.77
2018-09-22T14:20:50.015Z,35.86
2018-09-22T14:23:20.502Z,35.96
2018-09-22T14:25:51.281Z,35.12
2018-09-22T14:28:21.529Z,35.40
2018-09-22T14:30:53.604Z,34.15
2018-09-22T14:33:24.790Z,34.15
2018-09-22T14:35:54.939Z,34.33
2018-09-22T14:38:25.056Z,34.17
2018-09-22T14:40:55.815Z,34.71
2018-09-22T14:43:26.241Z,33.59
2018-09-22T14:45:56.781Z,34.28
2018-09-22T14:48:26.947Z,33.71
2018-09-22T14:50:57.597Z,33.69
2018-09-22T14:53:29.635Z,33.74
2018-09-22T14:56:00.210Z,33.53
2018-09-22T14:58:31.693Z,33.92
2018-09-22T15:01:02.987Z,33.70
2018-09-22T15:03:34.063Z,33.60
2018-09-22T15:06:05.500Z,33.51
2018-09-22T15:08:38.236Z,33.93
2018-09-22T15:11:08.916Z,32.88
2018-09-22T15:13:40.508Z,33.27
2018-09-22T15:16:11.433Z,33.07
2018-09-22T15:18:41.781Z,33.84
2018-09-22T15:21:12.637Z,33.91
2018-09-22T15:23:43.335Z,33.83
2018-09-22T15:26:14.360Z,33.17
2018-09-22T15:28:46.092Z,32.61
2018-09-22T15:31:17.573Z,32.94
2018-09-22T15:33:49.599Z,33.10
2018-09-22T15:36:20.758Z,33.13
2018-09-22T15:38:52.112Z,33.28
2018-09-22T15:41:23.797Z,33.38
2018-09-22T15:43:55.890Z,33.29
2018-09-22T15:46:26.926Z,33.54
2018-09-22T15:48:58.042Z,34.09
2018-09-22T15:51:28.352Z,34.13
2018-09-22T15:53:58.686Z,34.51
2018-09-22T15:56:30.570Z,34.42
2018-09-22T15:59:01.652Z,33.90
2018-09-22T16:01:32.550Z,34.15
2018-09-22T16:04:03.250Z,33.72
2018-09-22T16:06:34.132Z,34.25
2018-09-22T16:09:06.992Z,33.94
2018-09-22T16:11:41.006Z,34.38
2018-09-22T16:14:11.319Z,34.45
2018-09-22T16:16:41.650Z,34.64
2018-09-22T16:19:12.709Z,34.14
2018-09-22T16:21:44.410Z,33.51
2018-09-22T16:24:15.386Z,33.66
2018-09-22T16:26:48.078Z,33.16
2018-09-22T16:29:18.799Z,33.60
2018-09-22T16:31:49.566Z,33.58
2018-09-22T16:34:20.014Z,33.81
2018-09-22T16:36:51.356Z,33.71
2018-09-22T16:39:22.456Z,34.13
2018-09-22T16:41:53.447Z,33.91
2018-09-22T16:44:25.140Z,34.24
2018-09-22T16:46:56.173Z,34.39
2018-09-22T16:49:26.477Z,34.17
2018-09-22T16:51:58.210Z,34.24
2018-09-22T16:54:30.313Z,34.64
2018-09-22T16:57:01.051Z,34.82
2018-09-22T16:59:31.773Z,33.95
2018-09-22T17:02:02.326Z,34.31
2018-09-22T17:04:33.177Z,34.21
2018-09-22T17:07:04.793Z,34.28
2018-09-22T17:09:35.832Z,34.66
2018-09-22T17:12:06.088Z,34.60
2018-09-22T17:14:38.044Z,34.92
2018-09-22T17:17:08.655Z,34.88
2018-09-22T17:19:39.652Z,34.76
2018-09-22T17:22:09.898Z,34.89
2018-09-22T17:24:39.951Z,34.92
2018-09-22T17:27:10.269Z,34.91
2018-09-22T17:29:41.457Z,35.19
2018-09-22T17:32:12.154Z,34.91
2018-09-22T17:34:42.983Z,34.80
2018-09-22T17:37:15.453Z,35.05
2018-09-22T17:39:47.147Z,35.35
2018-09-22T17:42:18.782Z,35.34
2018-09-22T17:44:49.271Z,35.26
2018-09-22T17:47:20.771Z,35.57
2018-09-22T17:49:56.224Z,35.83
2018-09-22T17:52:26.434Z,36.07
2018-09-22T17:54:57.130Z,36.13
2018-09-22T17:57:28.913Z,36.44
2018-09-22T17:59:59.044Z,36.91
2018-09-22T18:02:31.795Z,36.64
2018-09-22T18:05:02.911Z,36.70
2018-09-22T18:07:34.020Z,36.90
2018-09-22T18:10:06.279Z,37.23
2018-09-22T18:12:38.643Z,37.69
2018-09-22T18:15:09.524Z,38.03
2018-09-22T18:17:40.349Z,37.76
2018-09-22T18:20:12.572Z,38.11
2018-09-22T18:22:43.841Z,37.82
2018-09-22T18:25:14.513Z,38.35
2018-09-22T18:27:45.659Z,38.16
2018-09-22T18:30:16.114Z,38.48
2018-09-22T18:32:46.412Z,38.70
2018-09-22T18:35:18.392Z,38.78
2018-09-22T18:37:50.791Z,38.87
2018-09-22T18:40:21.283Z,38.87
2018-09-22T18:42:51.999Z,38.70
2018-09-22T18:45:22.643Z,39.07
2018-09-22T18:47:53.129Z,39.17
2018-09-22T18:50:23.815Z,38.97
2018-09-22T18:52:54.501Z,39.26
2018-09-22T18:55:25.507Z,39.02
2018-09-22T18:57:55.691Z,39.30
2018-09-22T19:00:26.950Z,39.09
2018-09-22T19:02:58.558Z,39.31
2018-09-22T19:05:28.637Z,39.12
2018-09-22T19:07:58.808Z,39.28
2018-09-22T19:10:29.836Z,39.50
2018-09-22T19:13:03.154Z,39.43
2018-09-22T19:15:39.568Z,39.25
2018-09-22T19:18:17.419Z,39.47
2018-09-22T19:20:54.172Z,39.56
2018-09-22T19:23:32.124Z,39.61
2018-09-22T19:26:07.820Z,39.72
2018-09-22T19:28:45.856Z,39.81
2018-09-22T19:31:20.817Z,39.89
2018-09-22T19:33:55.095Z,39.53
2018-09-22T19:36:29.272Z,40.09
2018-09-22T19:39:03.597Z,40.07
2018-09-22T19:41:39.956Z,39.91
2018-09-22T19:44:30.482Z,40.02
2018-09-22T19:47:09.222Z,39.88
2018-09-22T19:49:52.376Z,39.93
2018-09-22T19:52:58.883Z,40.10
2018-09-22T19:55:29.385Z,39.98
2018-09-22T19:57:59.970Z,40.03
2018-09-22T20:00:30.406Z,40.01
2018-09-22T20:03:01.447Z,40.29
2018-09-22T20:05:31.550Z,40.28
2018-09-22T20:08:02.193Z,40.19
2018-09-22T20:10:32.658Z,40.28
2018-09-22T20:13:03.129Z,40.39
2018-09-22T20:15:33.518Z,40.28
2018-09-22T20:18:03.752Z,41.01
2018-09-22T20:20:34.586Z,40.83
2018-09-22T20:23:05.087Z,40.96
2018-09-22T20:25:35.322Z,41.01
2018-09-22T20:28:05.684Z,41.24
2018-09-22T20:30:35.881Z,40.92
2018-09-22T20:33:06.306Z,40.36
2018-09-22T20:35:37.032Z,40.68
2018-09-22T20:38:07.627Z,40.55
2018-09-22T20:40:37.841Z,40.56
2018-09-22T20:43:08.105Z,40.30
2018-09-22T20:45:38.895Z,40.87
2018-09-22T20:48:09.333Z,40.61
2018-09-22T20:50:39.754Z,40.55
2018-09-22T20:53:10.597Z,40.69
2018-09-22T20:55:40.915Z,41.01
2018-09-22T20:58:11.469Z,41.03
2018-09-22T21:00:42.011Z,40.93
2018-09-22T21:03:12.739Z,40.52
2018-09-22T21:05:42.960Z,40.52
2018-09-22T21:08:13.248Z,40.23
2018-09-22T21:10:43.451Z,40.28
2018-09-22T21:13:14.003Z,40.10
2018-09-22T21:15:44.736Z,40.16
2018-09-22T21:18:14.980Z,40.02
2018-09-22T21:20:45.208Z,39.91
2018-09-22T21:23:15.962Z,39.95
2018-09-22T21:25:45.995Z,39.92
2018-09-22T21:28:16.386Z,40.00
2018-09-22T21:30:46.880Z,39.93
2018-09-22T21:33:17.300Z,39.81
2018-09-22T21:35:48.000Z,40.17
2018-09-22T21:38:18.137Z,39.85
2018-09-22T21:40:48.390Z,39.93
2018-09-22T21:43:18.763Z,40.07
2018-09-22T21:45:49.179Z,40.01
2018-09-22T21:48:19.615Z,40.28
2018-09-22T21:50:49.781Z,40.03
2018-09-22T21:53:20.023Z,40.43
2018-09-22T21:55:50.581Z,40.43
2018-09-22T21:58:20.826Z,40.26
2018-09-22T22:00:53.081Z,40.67
2018-09-22T22:03:23.940Z,40.66
2018-09-22T22:05:54.133Z,40.52
2018-09-22T22:08:24.097Z,40.76
2018-09-22T22:10:54.171Z,40.78
2018-09-22T22:13:24.374Z,40.87
2018-09-22T22:15:54.643Z,41.06
2018-09-22T22:18:24.943Z,40.96
2018-09-22T22:20:55.046Z,41.12
2018-09-22T22:23:25.164Z,41.21
2018-09-22T22:25:55.265Z,41.10
2018-09-22T22:28:25.314Z,41.18
2018-09-22T22:30:55.464Z,41.06
2018-09-22T22:33:25.632Z,41.29
2018-09-22T22:35:55.668Z,40.98
2018-09-22T22:38:25.708Z,41.37
2018-09-22T22:40:56.121Z,41.24
2018-09-22T22:43:26.732Z,41.69
2018-09-22T22:45:57.178Z,41.22
2018-09-22T22:48:27.774Z,41.55
2018-09-22T22:50:58.142Z,41.43
2018-09-22T22:53:28.640Z,41.47
2018-09-22T22:55:58.856Z,41.62
2018-09-22T22:58:29.195Z,41.45
2018-09-22T23:00:59.442Z,41.58
2018-09-22T23:03:29.984Z,41.55
2018-09-22T23:06:00.615Z,41.34
2018-09-22T23:08:30.870Z,41.67
2018-09-22T23:11:01.183Z,41.63
2018-09-22T23:13:31.434Z,41.66
2018-09-22T23:16:01.569Z,41.59
2018-09-22T23:18:31.775Z,41.67
2018-09-22T23:21:01.958Z,41.71
2018-09-22T23:23:32.338Z,41.96
2018-09-22T23:26:02.824Z,41.58
2018-09-22T23:28:32.986Z,41.96
2018-09-22T23:31:03.418Z,42.14
2018-09-22T23:33:33.550Z,41.70
2018-09-22T23:36:03.927Z,41.81
2018-09-22T23:41:36.889Z,42.16
2018-09-22T23:44:07.715Z,41.78
2018-09-22T23:49:16.308Z,42.00
2018-09-22T23:51:46.562Z,41.93
2018-09-22T23:54:16.520Z,42.01
2018-09-22T23:56:46.671Z,42.00
2018-09-22T23:59:16.799Z,41.73
